Time;durP1;ratioP1;P1;durP2;ratioP2;P2;SDS_P1;SDS_P2;PMS_P1;PMS_P2;Temp;Humidity;BMP_temperature;BMP_pressure;BME280_temperature;BME280_humidity;BME280_pressure;Samples;Min_cycle;Max_cycle;Signal;HPM_P1;HPM_P2
2024/03/05 00:00:58;;;;;;;12.95;7.93;;;7.60;87.00;;;;;;5094513;28;20024;-37
2024/03/05 00:03:24;;;;;;;14.00;8.30;;;7.60;87.10;;;;;;5094464;28;20482;-37
2024/03/05 00:05:50;;;;;;;12.48;7.75;;;7.60;87.20;;;;;;5094261;28;20115;-37
2024/03/05 00:08:16;;;;;;;14.20;7.70;;;7.50;87.20;;;;;;5094513;28;20111;-37
2024/03/05 00:10:42;;;;;;;11.43;7.68;;;7.50;87.20;;;;;;5094356;28;20028;-37
2024/03/05 00:13:07;;;;;;;12.68;7.68;;;7.50;87.30;;;;;;5094291;28;20055;-37
2024/03/05 00:15:33;;;;;;;11.65;7.90;;;7.50;87.30;;;;;;5094572;28;20489;-37
2024/03/05 00:17:59;;;;;;;12.38;7.93;;;7.40;87.30;;;;;;5094280;28;20074;-37
2024/03/05 00:20:25;;;;;;;12.68;8.32;;;7.40;87.30;;;;;;5094408;28;20024;-37
2024/03/05 00:22:50;;;;;;;13.60;8.68;;;7.40;87.40;;;;;;5094023;28;20103;-37
2024/03/05 00:25:16;;;;;;;11.48;7.57;;;7.40;87.50;;;;;;5094193;28;20116;-37
2024/03/05 00:27:44;;;;;;;11.82;7.72;;;7.40;87.50;;;;;;5093993;28;20082;-37
2024/03/05 00:30:12;;;;;;;12.48;8.07;;;7.40;87.60;;;;;;5094146;28;20024;-36
2024/03/05 00:32:37;;;;;;;13.77;7.85;;;7.40;87.60;;;;;;5093709;28;20099;-35
2024/03/05 00:35:09;;;;;;;15.05;9.05;;;7.40;87.60;;;;;;5093774;28;20153;-37
2024/03/05 00:37:38;;;;;;;14.77;8.60;;;7.50;87.70;;;;;;5094023;28;20035;-35
2024/03/05 00:40:08;;;;;;;13.73;8.25;;;7.50;87.60;;;;;;5093992;28;20387;-37
2024/03/05 00:42:35;;;;;;;14.73;8.25;;;7.50;87.50;;;;;;5093821;28;20409;-45
2024/03/05 00:45:00;;;;;;;13.65;8.15;;;7.60;87.50;;;;;;5093990;28;20040;-37
2024/03/05 00:47:26;;;;;;;12.52;8.25;;;7.60;87.50;;;;;;5093599;28;20491;-36
2024/03/05 00:49:51;;;;;;;12.05;8.40;;;7.70;87.40;;;;;;5093546;28;20107;-36
2024/03/05 00:52:17;;;;;;;15.15;8.90;;;7.70;87.30;;;;;;5093411;28;20024;-36
2024/03/05 00:54:45;;;;;;;13.35;7.90;;;7.80;87.30;;;;;;5093823;28;20548;-36
2024/03/05 00:57:11;;;;;;;12.07;8.02;;;7.80;87.20;;;;;;5093315;28;20031;-36
2024/03/05 00:59:37;;;;;;;12.68;8.27;;;7.90;87.20;;;;;;5093106;28;20028;-35
2024/03/05 01:02:03;;;;;;;13.60;8.73;;;7.90;87.10;;;;;;5091681;28;20071;-37
2024/03/05 01:04:29;;;;;;;11.88;8.40;;;8.00;87.00;;;;;;5093197;28;20032;-36
2024/03/05 01:06:56;;;;;;;13.68;8.85;;;8.10;87.10;;;;;;5093349;28;20164;-36
2024/03/05 01:09:24;;;;;;;12.43;8.82;;;8.10;87.00;;;;;;5091964;28;20039;-36
2024/03/05 01:11:52;;;;;;;14.85;9.30;;;8.20;87.10;;;;;;5093123;28;20031;-35
2024/03/05 01:14:18;;;;;;;14.82;9.02;;;8.20;87.00;;;;;;5091624;28;20099;-35
2024/03/05 01:16:44;;;;;;;16.48;9.18;;;8.30;87.00;;;;;;5093361;28;20042;-37
2024/03/05 01:19:12;;;;;;;13.10;8.95;;;8.30;87.00;;;;;;5093004;28;20472;-36
2024/03/05 01:21:38;;;;;;;15.07;9.35;;;8.40;87.70;;;;;;5092674;28;20032;-36
2024/03/05 01:24:04;;;;;;;15.63;9.45;;;8.40;87.00;;;;;;5092802;28;20031;-37
2024/03/05 01:26:29;;;;;;;15.55;9.40;;;8.40;87.00;;;;;;5092669;28;20028;-37
2024/03/05 01:28:55;;;;;;;13.93;9.88;;;8.40;87.00;;;;;;5091494;28;20515;-35
2024/03/05 01:31:22;;;;;;;14.93;9.98;;;8.40;87.00;;;;;;5092884;28;20028;-37
2024/03/05 01:33:48;;;;;;;14.82;9.82;;;8.50;87.00;;;;;;5092670;28;20020;-35
2024/03/05 01:36:15;;;;;;;15.02;9.35;;;8.50;87.10;;;;;;5092629;28;20043;-35
2024/03/05 01:38:42;;;;;;;13.88;9.63;;;8.50;87.10;;;;;;5092700;28;20442;-37
2024/03/05 01:41:07;;;;;;;14.07;9.50;;;8.50;87.10;;;;;;5092841;28;20629;-36
2024/03/05 01:43:33;;;;;;;16.25;10.15;;;8.60;87.20;;;;;;5092262;28;20070;-35
2024/03/05 01:45:59;;;;;;;16.02;10.00;;;8.60;87.20;;;;;;5092380;28;20433;-35
2024/03/05 01:48:26;;;;;;;17.40;9.77;;;8.60;87.20;;;;;;5092581;28;20089;-38
2024/03/05 01:50:52;;;;;;;15.23;10.20;;;8.60;87.30;;;;;;5090982;28;20031;-37
2024/03/05 01:53:18;;;;;;;15.43;9.90;;;8.60;87.30;;;;;;5091492;28;20024;-36
2024/03/05 01:55:46;;;;;;;16.50;9.95;;;8.60;87.30;;;;;;5092150;28;20400;-36
2024/03/05 01:58:15;;;;;;;16.17;9.95;;;8.60;87.30;;;;;;5092360;28;20012;-36
2024/03/05 02:00:41;;;;;;;14.20;9.98;;;8.60;87.40;;;;;;5092098;28;20524;-37
2024/03/05 02:03:07;;;;;;;14.57;10.43;;;8.60;87.40;;;;;;5091469;28;20052;-35
2024/03/05 02:05:33;;;;;;;19.13;10.80;;;8.60;87.40;;;;;;5092304;28;20086;-33
2024/03/05 02:07:59;;;;;;;15.95;9.98;;;8.60;87.40;;;;;;5090820;28;20035;-35
2024/03/05 02:10:26;;;;;;;16.08;10.07;;;8.60;87.50;;;;;;5091371;28;20118;-36
2024/03/05 02:12:52;;;;;;;15.43;10.32;;;8.50;87.50;;;;;;5091680;28;20020;-37
2024/03/05 02:15:19;;;;;;;15.18;10.65;;;8.50;87.50;;;;;;5091905;28;20035;-36
2024/03/05 02:17:45;;;;;;;16.65;10.45;;;8.50;87.60;;;;;;5092275;28;20435;-36
2024/03/05 02:20:14;;;;;;;16.42;10.13;;;8.60;87.70;;;;;;5092212;28;20020;-36
2024/03/05 02:22:41;;;;;;;16.45;11.25;;;8.50;87.70;;;;;;5092017;28;20089;-35
2024/03/05 02:25:07;;;;;;;16.55;10.68;;;8.60;88.40;;;;;;5092069;28;20416;-35
2024/03/05 02:27:35;;;;;;;15.63;10.35;;;8.60;87.80;;;;;;5091756;28;20024;-36
2024/03/05 02:30:02;;;;;;;18.58;10.85;;;8.60;87.80;;;;;;5091564;28;20023;-37
2024/03/05 02:32:29;;;;;;;20.75;11.80;;;8.60;87.80;;;;;;5091925;28;20103;-36
2024/03/05 02:34:55;;;;;;;21.65;11.57;;;8.60;87.80;;;;;;5090173;28;20094;-36
2024/03/05 02:37:21;;;;;;;18.50;11.52;;;8.60;87.80;;;;;;5091829;28;20051;-37
2024/03/05 02:39:47;;;;;;;20.20;10.70;;;8.70;87.80;;;;;;5091878;28;20027;-35
2024/03/05 02:42:13;;;;;;;17.83;11.15;;;8.60;87.80;;;;;;5091804;28;20017;-37
2024/03/05 02:44:39;;;;;;;19.25;11.68;;;8.70;87.90;;;;;;5091431;28;20096;-36
2024/03/05 02:47:07;;;;;;;17.08;11.88;;;8.70;87.90;;;;;;5090223;28;20315;-36
2024/03/05 02:49:34;;;;;;;15.77;10.98;;;8.60;87.90;;;;;;5091820;28;20476;-37
2024/03/05 02:52:00;;;;;;;17.60;11.63;;;8.60;88.00;;;;;;5091534;28;20430;-37
2024/03/05 02:54:25;;;;;;;15.90;10.90;;;8.70;88.10;;;;;;5090318;28;20044;-41
2024/03/05 02:56:51;;;;;;;19.38;12.43;;;8.70;88.10;;;;;;5091358;28;20047;-36
2024/03/05 02:59:17;;;;;;;19.45;11.13;;;8.70;88.10;;;;;;5091623;28;20024;-36
2024/03/05 03:01:46;;;;;;;20.58;11.73;;;8.70;88.10;;;;;;5091201;28;20020;-37
2024/03/05 03:04:12;;;;;;;21.00;11.60;;;8.70;88.10;;;;;;5091718;28;20384;-37
2024/03/05 03:06:37;;;;;;;23.15;12.20;;;8.70;88.70;;;;;;5089938;28;20119;-35
2024/03/05 03:09:03;;;;;;;19.20;11.65;;;8.70;88.20;;;;;;5091259;28;20115;-37
2024/03/05 03:11:29;;;;;;;18.95;12.38;;;8.70;88.20;;;;;;5091226;28;20050;-36
2024/03/05 03:13:55;;;;;;;19.73;11.63;;;8.70;88.20;;;;;;5091176;28;20020;-36
2024/03/05 03:16:21;;;;;;;20.35;12.25;;;8.80;88.30;;;;;;5091516;28;20044;-36
2024/03/05 03:18:47;;;;;;;17.20;11.48;;;8.80;88.30;;;;;;5091545;28;20020;-37
2024/03/05 03:21:13;;;;;;;18.63;11.48;;;8.80;88.30;;;;;;5091148;28;20020;-38
2024/03/05 03:23:38;;;;;;;19.88;11.55;;;8.80;88.30;;;;;;5094466;28;20065;-37
2024/03/05 03:26:04;;;;;;;18.73;12.07;;;8.80;88.30;;;;;;5095189;28;20369;-36
2024/03/05 03:28:29;;;;;;;20.60;11.82;;;8.80;88.30;;;;;;5095017;28;20078;-37
2024/03/05 03:30:55;;;;;;;20.17;12.23;;;8.80;88.30;;;;;;5095321;28;20025;-35
2024/03/05 03:33:22;;;;;;;18.63;11.95;;;8.80;88.30;;;;;;5095037;28;20016;-36
2024/03/05 03:35:47;;;;;;;21.02;12.43;;;8.80;88.30;;;;;;5094816;28;20044;-36
2024/03/05 03:38:13;;;;;;;21.20;12.65;;;8.80;88.40;;;;;;5094989;28;20093;-36
2024/03/05 03:40:41;;;;;;;24.55;13.60;;;8.80;88.40;;;;;;5095119;28;20051;-36
2024/03/05 03:43:07;;;;;;;20.90;11.85;;;8.80;88.40;;;;;;5094870;28;20027;-34
2024/03/05 03:45:33;;;;;;;24.73;13.52;;;8.80;88.50;;;;;;5094975;28;20024;-37
2024/03/05 03:47:59;;;;;;;19.25;12.27;;;8.80;88.50;;;;;;5095050;28;20491;-36
2024/03/05 03:50:24;;;;;;;20.55;12.13;;;8.80;88.50;;;;;;5094895;28;20586;-37
2024/03/05 03:52:50;;;;;;;19.85;12.55;;;8.90;88.50;;;;;;5094589;28;20055;-37
2024/03/05 03:55:15;;;;;;;20.00;12.50;;;8.90;88.50;;;;;;5094949;28;20050;-35
2024/03/05 03:57:42;;;;;;;22.60;13.68;;;8.80;88.40;;;;;;5094297;28;20028;-32
2024/03/05 04:00:09;;;;;;;18.83;12.82;;;8.90;88.50;;;;;;5094410;28;20028;-36
2024/03/05 04:02:36;;;;;;;20.10;12.38;;;8.90;88.50;;;;;;5094155;28;20020;-36
2024/03/05 04:05:09;;;;;;;21.48;13.43;;;8.90;88.50;;;;;;5093157;28;20099;-36
2024/03/05 04:07:35;;;;;;;19.75;12.75;;;8.90;88.50;;;;;;5093181;28;20016;-36
2024/03/05 04:10:01;;;;;;;20.98;13.18;;;8.90;88.50;;;;;;5094455;28;20012;-36
2024/03/05 04:12:27;;;;;;;21.85;13.73;;;8.90;88.50;;;;;;5094129;28;20339;-35
2024/03/05 04:14:53;;;;;;;22.20;13.85;;;8.90;88.60;;;;;;5094426;28;20024;-37
2024/03/05 04:17:19;;;;;;;22.23;13.95;;;8.90;88.70;;;;;;5094311;28;20027;-36
2024/03/05 04:19:46;;;;;;;22.63;13.40;;;8.90;88.70;;;;;;5094372;28;20403;-43
2024/03/05 04:22:14;;;;;;;22.45;13.50;;;8.90;88.70;;;;;;5094231;28;20032;-36
2024/03/05 04:24:43;;;;;;;22.88;14.10;;;8.90;88.70;;;;;;5093871;28;20020;-35
2024/03/05 04:27:11;;;;;;;23.45;14.00;;;8.90;88.60;;;;;;5094472;28;20028;-36
2024/03/05 04:29:41;;;;;;;22.10;14.23;;;8.90;88.60;;;;;;5094231;28;20103;-36
2024/03/05 04:32:11;;;;;;;21.10;13.30;;;8.90;88.60;;;;;;5094048;28;20055;-37
2024/03/05 04:34:40;;;;;;;22.48;14.30;;;8.90;88.70;;;;;;5092825;28;20054;-37
2024/03/05 04:37:12;;;;;;;23.00;13.38;;;8.90;88.70;;;;;;5094042;28;20085;-36
2024/03/05 04:39:38;;;;;;;21.83;13.52;;;8.90;88.70;;;;;;5093948;28;20047;-37
2024/03/05 04:42:04;;;;;;;21.60;13.25;;;8.90;88.70;;;;;;5093696;28;20106;-37
2024/03/05 04:44:31;;;;;;;23.63;13.98;;;8.90;88.70;;;;;;5093748;28;20418;-36
2024/03/05 04:46:57;;;;;;;25.83;13.82;;;8.90;88.70;;;;;;5093542;28;20099;-36
2024/03/05 04:49:22;;;;;;;21.27;13.32;;;8.90;88.80;;;;;;5093732;28;20111;-36
2024/03/05 04:51:49;;;;;;;25.15;14.40;;;8.90;88.80;;;;;;5093858;28;20039;-36
2024/03/05 04:54:15;;;;;;;22.35;13.40;;;8.90;88.80;;;;;;5093846;28;20020;-37
2024/03/05 04:56:40;;;;;;;25.70;13.73;;;8.90;88.80;;;;;;5092096;28;20028;-36
2024/03/05 04:59:06;;;;;;;26.67;15.68;;;8.90;88.80;;;;;;5093717;28;20055;-36
2024/03/05 05:01:31;;;;;;;26.02;15.10;;;8.90;88.90;;;;;;5091845;28;20020;-34
2024/03/05 05:03:57;;;;;;;23.85;13.77;;;8.80;88.90;;;;;;5093298;28;20032;-35
2024/03/05 05:06:23;;;;;;;26.48;15.07;;;8.90;88.90;;;;;;5093613;28;20020;-36
2024/03/05 05:08:49;;;;;;;24.20;15.30;;;8.80;88.90;;;;;;5093122;28;20468;-37
2024/03/05 05:11:14;;;;;;;27.48;15.57;;;8.90;89.00;;;;;;5093507;28;20027;-36
2024/03/05 05:13:40;;;;;;;23.77;13.77;;;8.90;88.90;;;;;;5093132;28;20468;-36
2024/03/05 05:16:11;;;;;;;25.10;13.80;;;8.80;88.90;;;;;;5093134;28;20016;-37
2024/03/05 05:18:37;;;;;;;28.35;14.73;;;8.90;89.00;;;;;;5091661;28;20027;-35
2024/03/05 05:21:03;;;;;;;25.30;14.10;;;8.80;89.00;;;;;;5093219;28;20107;-36
2024/03/05 05:23:29;;;;;;;27.67;15.00;;;8.80;89.00;;;;;;5092997;28;20165;-36
2024/03/05 05:25:54;;;;;;;30.20;15.20;;;8.80;89.00;;;;;;5092870;28;20024;-37
2024/03/05 05:28:20;;;;;;;26.88;15.10;;;8.80;89.10;;;;;;5093205;28;20469;-36
2024/03/05 05:30:46;;;;;;;25.75;14.60;;;8.80;89.10;;;;;;5092736;28;20032;-36
2024/03/05 05:33:12;;;;;;;27.42;15.60;;;8.80;89.10;;;;;;5091433;28;20051;-37
2024/03/05 05:35:37;;;;;;;31.80;14.88;;;8.80;89.20;;;;;;5092654;28;20036;-37
2024/03/05 05:38:04;;;;;;;26.83;13.82;;;8.80;89.20;;;;;;5092572;28;20099;-37
2024/03/05 05:40:29;;;;;;;27.58;13.77;;;8.80;89.20;;;;;;5091601;28;20236;-37
2024/03/05 05:42:55;;;;;;;25.88;14.00;;;8.80;89.20;;;;;;5092333;28;20047;-36
2024/03/05 05:45:23;;;;;;;29.20;14.07;;;8.80;89.30;;;;;;5092433;28;20099;-37
2024/03/05 05:47:51;;;;;;;27.95;14.85;;;8.80;89.30;;;;;;5092344;28;20032;-35
2024/03/05 05:50:18;;;;;;;31.02;14.60;;;8.80;89.30;;;;;;5090961;28;20081;-39
2024/03/05 05:52:52;;;;;;;26.92;14.70;;;8.80;89.30;;;;;;5092569;28;20020;-35
2024/03/05 05:55:20;;;;;;;26.77;14.63;;;8.80;89.30;;;;;;5092590;28;20290;-36
2024/03/05 05:57:47;;;;;;;27.33;14.43;;;8.80;89.30;;;;;;5091176;28;20024;-36
2024/03/05 06:00:23;;;;;;;30.67;15.30;;;8.80;89.40;;;;;;5092407;28;20028;-36
2024/03/05 06:02:55;;;;;;;27.25;14.75;;;8.80;89.40;;;;;;5092207;28;20456;-37
2024/03/05 06:05:25;;;;;;;27.67;14.80;;;8.80;89.40;;;;;;5092364;28;20472;-37
2024/03/05 06:07:51;;;;;;;30.65;14.40;;;8.80;89.40;;;;;;5092399;28;20024;-36
2024/03/05 06:10:19;;;;;;;29.90;14.27;;;8.80;89.40;;;;;;5092013;28;20496;-37
2024/03/05 06:12:45;;;;;;;27.05;14.68;;;8.80;89.40;;;;;;5091816;28;20029;-36
2024/03/05 06:15:12;;;;;;;31.92;15.15;;;8.80;89.50;;;;;;5092033;28;20075;-37
2024/03/05 06:17:39;;;;;;;28.90;14.90;;;8.80;89.50;;;;;;5092232;28;20035;-37
2024/03/05 06:20:12;;;;;;;29.95;14.40;;;8.80;89.60;;;;;;5092191;28;20022;-38
2024/03/05 06:22:43;;;;;;;27.20;14.77;;;8.80;89.70;;;;;;5092112;28;20021;-37
2024/03/05 06:25:11;;;;;;;32.65;16.05;;;8.80;89.70;;;;;;5091857;28;20099;-36
2024/03/05 06:27:38;;;;;;;32.35;15.82;;;8.80;89.70;;;;;;5091662;28;20400;-44
2024/03/05 06:30:07;;;;;;;32.55;16.33;;;8.80;89.70;;;;;;5092101;28;20051;-37
2024/03/05 06:32:42;;;;;;;32.75;15.43;;;8.80;89.70;;;;;;5092038;28;20020;-37
2024/03/05 06:35:10;;;;;;;31.35;15.15;;;8.80;89.70;;;;;;5091808;28;20079;-36
2024/03/05 06:37:40;;;;;;;32.47;16.17;;;8.80;89.70;;;;;;5091427;28;20424;-36
2024/03/05 06:40:09;;;;;;;33.85;16.95;;;8.80;89.70;;;;;;5092133;28;20110;-36
2024/03/05 06:42:36;;;;;;;37.88;16.90;;;8.90;89.70;;;;;;5091298;28;20027;-37
2024/03/05 06:45:06;;;;;;;30.85;15.70;;;8.90;89.70;;;;;;5091882;28;20099;-38
2024/03/05 06:47:39;;;;;;;28.15;14.85;;;8.90;89.70;;;;;;5091924;28;20027;-34
2024/03/05 06:50:10;;;;;;;33.90;15.93;;;8.90;89.70;;;;;;5091932;28;20024;-33
2024/03/05 06:58:05;;;;;;;26.42;14.55;;;8.90;89.70;;;;;;5096724;28;20063;-35
2024/03/05 07:00:31;;;;;;;30.30;15.07;;;8.90;89.70;;;;;;5098350;28;20036;-37
2024/03/05 07:02:57;;;;;;;31.75;15.90;;;8.90;89.70;;;;;;5098217;28;20089;-36
2024/03/05 07:05:23;;;;;;;32.28;17.10;;;8.90;89.80;;;;;;5098076;28;20472;-36
2024/03/05 07:07:49;;;;;;;34.42;16.27;;;9.00;89.80;;;;;;5098126;28;20055;-39
2024/03/05 07:10:14;;;;;;;33.63;16.42;;;9.00;89.80;;;;;;5098106;28;20475;-37
2024/03/05 07:12:44;;;;;;;32.50;15.93;;;9.00;89.70;;;;;;5098158;28;20024;-35
2024/03/05 07:15:14;;;;;;;29.23;16.10;;;9.00;89.70;;;;;;5097976;28;20027;-35
2024/03/05 07:17:42;;;;;;;28.90;15.60;;;9.00;89.70;;;;;;5097979;28;20065;-35
2024/03/05 07:20:18;;;;;;;30.88;15.77;;;9.00;89.70;;;;;;5098335;28;20107;-36
2024/03/05 07:22:47;;;;;;;32.78;16.02;;;9.00;89.60;;;;;;5098020;28;20411;-36
2024/03/05 07:25:14;;;;;;;35.00;16.95;;;9.10;89.70;;;;;;5098049;28;20016;-36
2024/03/05 07:27:44;;;;;;;31.92;16.15;;;9.10;89.70;;;;;;5098182;28;20028;-36
2024/03/05 07:30:15;;;;;;;34.97;17.55;;;9.10;89.60;;;;;;5097956;28;20016;-36
2024/03/05 07:32:43;;;;;;;37.10;17.42;;;9.10;89.70;;;;;;5097851;28;20434;-36
2024/03/05 07:35:09;;;;;;;34.85;17.20;;;9.20;89.60;;;;;;5097739;28;20381;-36
2024/03/05 07:37:35;;;;;;;36.95;17.25;;;9.20;89.60;;;;;;5097716;28;20031;-36
2024/03/05 07:40:09;;;;;;;36.53;17.25;;;9.20;89.60;;;;;;5098165;28;20028;-36
2024/03/05 07:42:40;;;;;;;36.50;17.45;;;9.20;89.50;;;;;;5097512;28;20030;-36
2024/03/05 07:45:07;;;;;;;34.27;16.53;;;9.20;89.50;;;;;;5097830;28;20135;-36
2024/03/05 07:47:33;;;;;;;35.22;16.45;;;9.30;89.60;;;;;;5097628;28;20075;-38
2024/03/05 07:49:59;;;;;;;34.85;16.70;;;9.30;89.50;;;;;;5097805;28;20485;-36
2024/03/05 07:52:25;;;;;;;34.20;17.75;;;9.40;89.50;;;;;;5097560;28;20022;-35
2024/03/05 07:54:50;;;;;;;33.72;16.60;;;9.40;89.50;;;;;;5097489;28;20110;-36
2024/03/05 07:57:16;;;;;;;35.13;17.48;;;9.40;89.40;;;;;;5097757;28;20027;-38
2024/03/05 07:59:42;;;;;;;34.80;16.95;;;9.40;89.30;;;;;;5097816;28;20073;-37
2024/03/05 08:02:08;;;;;;;33.55;16.17;;;9.50;89.40;;;;;;5097520;28;20047;-38
2024/03/05 08:04:33;;;;;;;32.08;17.05;;;9.50;89.30;;;;;;5097789;28;20035;-37
2024/03/05 08:06:59;;;;;;;33.55;17.63;;;9.50;89.20;;;;;;5097483;28;20373;-36
2024/03/05 08:09:24;;;;;;;36.25;18.90;;;9.60;89.20;;;;;;5094107;28;20461;-36
2024/03/05 08:11:51;;;;;;;37.55;17.83;;;9.60;89.10;;;;;;5094435;28;20028;-37
2024/03/05 08:14:16;;;;;;;38.67;17.33;;;9.70;89.10;;;;;;5093009;28;20492;-37
2024/03/05 08:16:42;;;;;;;35.22;17.85;;;9.70;89.00;;;;;;5094550;28;20043;-35
2024/03/05 08:19:07;;;;;;;38.20;17.88;;;9.70;88.90;;;;;;5094401;28;20026;-37
2024/03/05 08:21:34;;;;;;;41.83;19.08;;;9.80;88.90;;;;;;5094152;28;20048;-37
2024/03/05 08:24:02;;;;;;;36.63;18.23;;;9.80;88.90;;;;;;5094406;28;20020;-35
2024/03/05 08:26:28;;;;;;;32.17;17.45;;;9.80;88.80;;;;;;5094351;28;20028;-36
2024/03/05 08:28:53;;;;;;;37.25;18.27;;;9.90;88.80;;;;;;5094177;28;20020;-36
2024/03/05 08:31:19;;;;;;;37.38;18.90;;;9.90;88.70;;;;;;5094336;28;20020;-35
2024/03/05 08:33:44;;;;;;;40.47;18.75;;;10.00;88.70;;;;;;5094317;28;20435;-37
2024/03/05 08:36:11;;;;;;;37.85;18.95;;;10.00;88.60;;;;;;5093788;28;20374;-31
2024/03/05 08:38:36;;;;;;;40.38;19.98;;;10.10;88.50;;;;;;5093899;28;20028;-37
2024/03/05 08:41:02;;;;;;;40.33;19.23;;;10.10;89.10;;;;;;5093805;28;20074;-37
2024/03/05 08:43:30;;;;;;;42.33;20.05;;;10.10;88.30;;;;;;5092334;28;20027;-38
2024/03/05 08:45:56;;;;;;;44.28;19.88;;;10.20;88.40;;;;;;5094326;28;20051;-37
2024/03/05 08:48:21;;;;;;;42.00;20.98;;;10.20;88.30;;;;;;5093728;28;20496;-37
2024/03/05 08:50:47;;;;;;;42.47;20.40;;;10.10;88.20;;;;;;5093737;28;20035;-39
2024/03/05 08:53:14;;;;;;;41.03;20.23;;;10.20;88.30;;;;;;5093474;28;20024;-38
2024/03/05 08:55:39;;;;;;;41.55;21.08;;;10.10;88.30;;;;;;5093907;28;20035;-40
2024/03/05 08:58:05;;;;;;;42.58;20.98;;;10.20;88.30;;;;;;5093635;28;20472;-38
2024/03/05 09:00:33;;;;;;;45.05;21.05;;;10.20;88.20;;;;;;5093607;28;20020;-37
2024/03/05 09:02:59;;;;;;;41.88;20.92;;;10.20;88.20;;;;;;5093723;28;20016;-38
2024/03/05 09:05:24;;;;;;;46.42;21.23;;;10.20;88.10;;;;;;5093476;28;20053;-39
2024/03/05 09:07:50;;;;;;;40.67;20.85;;;10.20;88.20;;;;;;5093381;28;20035;-38
2024/03/05 09:10:17;;;;;;;38.88;20.20;;;10.20;88.10;;;;;;5093589;28;20029;-36
2024/03/05 09:12:44;;;;;;;46.47;22.20;;;10.30;88.10;;;;;;5092909;28;20028;-36
2024/03/05 09:15:10;;;;;;;45.45;21.83;;;10.30;88.00;;;;;;5093354;28;20165;-36
2024/03/05 09:17:35;;;;;;;48.38;22.88;;;10.30;87.90;;;;;;5091854;28;20024;-47
2024/03/05 09:20:15;;;;;;;43.65;21.13;;;10.30;88.00;;;;;;5093096;28;20028;-37
2024/03/05 09:22:44;;;;;;;43.88;20.83;;;10.30;87.90;;;;;;5092991;28;20024;-36
2024/03/05 09:25:14;;;;;;;46.10;21.95;;;10.30;87.80;;;;;;5092946;28;20024;-36
2024/03/05 09:27:42;;;;;;;45.65;21.70;;;10.40;87.80;;;;;;5093320;28;20472;-37
2024/03/05 09:30:08;;;;;;;46.72;21.65;;;10.40;87.70;;;;;;5091674;28;20026;-36
2024/03/05 09:32:34;;;;;;;46.08;22.10;;;10.50;87.80;;;;;;5092566;28;20313;-36
2024/03/05 09:34:59;;;;;;;45.40;21.85;;;10.50;87.80;;;;;;5092639;28;20487;-37
2024/03/05 09:37:28;;;;;;;49.83;22.75;;;10.50;87.70;;;;;;5093041;28;20028;-37
2024/03/05 09:39:54;;;;;;;49.72;22.45;;;10.50;87.60;;;;;;5092778;28;20032;-36
2024/03/05 09:42:20;;;;;;;48.03;23.35;;;10.50;87.60;;;;;;5092796;28;20055;-35
2024/03/05 09:44:48;;;;;;;45.97;23.08;;;10.60;87.60;;;;;;5091643;28;20020;-35
2024/03/05 09:47:17;;;;;;;48.10;23.52;;;10.60;87.50;;;;;;5092600;28;20035;-38
2024/03/05 09:49:44;;;;;;;43.80;22.00;;;10.70;88.00;;;;;;5092899;28;20130;-36
2024/03/05 09:52:11;;;;;;;45.80;22.80;;;10.80;87.40;;;;;;5092494;28;20029;-37
2024/03/05 09:54:38;;;;;;;41.78;21.08;;;10.80;87.30;;;;;;5091452;28;20392;-37
2024/03/05 09:57:05;;;;;;;42.38;21.88;;;10.80;87.20;;;;;;5091044;28;20024;-37
2024/03/05 09:59:30;;;;;;;41.42;21.90;;;10.90;87.10;;;;;;5091342;28;20024;-41
2024/03/05 10:01:56;;;;;;;43.22;22.27;;;11.00;87.10;;;;;;5091238;28;20038;-36
2024/03/05 10:04:26;;;;;;;42.42;22.35;;;11.00;86.90;;;;;;5091898;28;20024;-36
2024/03/05 10:06:52;;;;;;;48.20;23.15;;;11.10;86.80;;;;;;5092559;28;20031;-37
2024/03/05 10:09:18;;;;;;;40.70;21.40;;;11.10;86.70;;;;;;5090979;28;20388;-37
2024/03/05 10:11:44;;;;;;;39.72;22.15;;;11.10;86.60;;;;;;5091993;28;20101;-40
2024/03/05 10:14:11;;;;;;;42.08;21.30;;;11.10;86.50;;;;;;5092092;28;20415;-37
2024/03/05 10:16:40;;;;;;;38.85;20.70;;;11.20;86.40;;;;;;5092392;28;20031;-38
2024/03/05 10:19:12;;;;;;;38.42;21.25;;;11.20;86.20;;;;;;5092106;28;20032;-37
2024/03/05 10:21:38;;;;;;;39.58;21.33;;;11.30;86.10;;;;;;5091898;28;20035;-37
2024/03/05 10:24:05;;;;;;;35.53;20.73;;;11.30;85.90;;;;;;5091173;28;20036;-38
2024/03/05 10:26:32;;;;;;;38.42;20.13;;;11.40;85.70;;;;;;5092245;28;20028;-37
2024/03/05 10:28:59;;;;;;;34.28;20.48;;;11.40;85.50;;;;;;5092183;28;20422;-35
2024/03/05 10:31:28;;;;;;;32.45;18.88;;;11.40;85.40;;;;;;5089857;28;20028;-39
2024/03/05 10:33:56;;;;;;;38.25;20.65;;;11.40;85.20;;;;;;5091592;28;20032;-37
2024/03/05 10:36:35;;;;;;;36.03;20.02;;;11.50;85.00;;;;;;5091951;28;20020;-38
2024/03/05 10:39:01;;;;;;;36.35;19.92;;;11.50;84.90;;;;;;5091719;28;20048;-36
2024/03/05 10:41:34;;;;;;;32.85;19.83;;;11.60;84.80;;;;;;5091973;28;20345;-37
2024/03/05 10:44:00;;;;;;;32.10;18.98;;;11.60;84.60;;;;;;5091589;28;20042;-37
2024/03/05 10:46:29;;;;;;;38.10;20.20;;;11.50;84.50;;;;;;5091677;28;20076;-39
2024/03/05 10:48:56;;;;;;;31.85;19.20;;;11.60;84.60;;;;;;5091537;28;20036;-37
2024/03/05 10:51:26;;;;;;;39.22;20.35;;;11.60;84.60;;;;;;5090178;28;20127;-36
2024/03/05 10:53:52;;;;;;;36.00;20.30;;;11.60;84.40;;;;;;5091663;28;20016;-34
2024/03/05 10:56:18;;;;;;;40.38;21.65;;;11.60;84.30;;;;;;5091585;28;20028;-37
2024/03/05 11:01:24;;;;;;;35.50;19.60;;;11.40;84.10;;;;;;5091675;28;20040;-37
2024/03/05 11:03:52;;;;;;;40.95;20.83;;;11.40;84.20;;;;;;5090099;28;20073;-39
2024/03/05 11:06:20;;;;;;;34.33;19.45;;;11.30;84.10;;;;;;5091450;28;20020;-37
2024/03/05 11:08:48;;;;;;;38.05;20.20;;;11.30;84.20;;;;;;5090226;28;20506;-37
2024/03/05 11:11:19;;;;;;;34.55;20.35;;;11.20;84.20;;;;;;5091707;28;20024;-37
2024/03/05 11:13:51;;;;;;;35.22;19.90;;;11.20;84.20;;;;;;5091276;28;20033;-38
2024/03/05 11:16:17;;;;;;;32.00;17.63;;;11.20;84.10;;;;;;5091579;28;20038;-36
2024/03/05 11:18:44;;;;;;;32.75;18.38;;;11.20;84.10;;;;;;5091563;28;20409;-37
2024/03/05 11:21:14;;;;;;;31.20;17.83;;;11.20;83.90;;;;;;5091647;28;20032;-36
2024/03/05 11:23:52;;;;;;;33.85;18.52;;;11.20;83.90;;;;;;5089901;28;20111;-37
2024/03/05 11:26:20;;;;;;;31.95;18.45;;;11.20;83.60;;;;;;5091365;28;20047;-43
2024/03/05 11:28:52;;;;;;;28.42;17.02;;;11.20;83.60;;;;;;5091408;28;20446;-38
2024/03/05 11:31:19;;;;;;;27.67;17.13;;;11.30;83.60;;;;;;5091456;28;20480;-38
2024/03/05 11:33:45;;;;;;;30.40;17.70;;;11.30;83.50;;;;;;5091242;28;20274;-37
2024/03/05 11:36:22;;;;;;;30.77;17.58;;;11.30;83.30;;;;;;5091152;28;20040;-34
2024/03/05 11:39:07;;;;;;;30.38;18.27;;;11.20;83.20;;;;;;5089813;28;20514;-36
2024/03/05 11:41:43;;;;;;;26.92;16.45;;;11.20;83.50;;;;;;5091028;28;20039;-36
2024/03/05 11:44:14;;;;;;;23.05;14.65;;;11.10;83.50;;;;;;5093817;28;20056;-37
2024/03/05 11:46:47;;;;;;;22.77;13.57;;;11.20;83.70;;;;;;5095046;28;20028;-38
2024/03/05 11:49:15;;;;;;;21.15;13.05;;;11.20;83.60;;;;;;5094833;28;20107;-38
2024/03/05 11:51:45;;;;;;;19.98;12.07;;;11.10;83.00;;;;;;5093542;28;20031;-36
2024/03/05 11:54:15;;;;;;;21.08;11.63;;;11.10;83.00;;;;;;5094743;28;20016;-36
2024/03/05 11:56:44;;;;;;;17.60;10.88;;;11.00;83.10;;;;;;5094801;28;20056;-39
2024/03/05 11:59:11;;;;;;;16.48;10.45;;;10.90;83.20;;;;;;5093450;28;20549;-36
2024/03/05 12:01:41;;;;;;;17.42;11.38;;;10.90;83.30;;;;;;5094832;28;20044;-35
2024/03/05 12:04:07;;;;;;;18.85;11.15;;;10.90;83.30;;;;;;5094956;28;20053;-37
2024/03/05 12:06:39;;;;;;;18.83;11.73;;;10.80;83.20;;;;;;5094861;28;20028;-36
2024/03/05 12:09:22;;;;;;;17.92;12.02;;;10.80;83.20;;;;;;5094723;28;20094;-47
2024/03/05 12:11:57;;;;;;;;;;;10.70;83.20;;;;;;5094780;28;20045;-39
2024/03/05 12:14:23;;;;;;;18.17;11.63;;;10.60;83.20;;;;;;5094486;28;19955;-36
2024/03/05 12:16:49;;;;;;;18.80;12.38;;;10.60;83.50;;;;;;5094403;28;20067;-39
2024/03/05 12:19:15;;;;;;;19.02;12.98;;;10.50;83.60;;;;;;5094450;28;20055;-39
2024/03/05 12:21:41;;;;;;;17.80;12.30;;;10.50;83.60;;;;;;5094127;28;20059;-37
2024/03/05 12:24:06;;;;;;;20.63;13.10;;;10.50;83.80;;;;;;5094290;28;20028;-38
2024/03/05 12:26:34;;;;;;;19.23;12.63;;;10.50;83.90;;;;;;5094216;28;20039;-33
2024/03/05 12:29:02;;;;;;;22.25;13.20;;;10.40;84.00;;;;;;5094220;28;20496;-36
2024/03/05 12:31:27;;;;;;;18.33;11.88;;;10.40;84.20;;;;;;5094010;28;20024;-35
2024/03/05 12:33:53;;;;;;;18.85;12.77;;;10.40;84.30;;;;;;5094254;28;20040;-38
2024/03/05 12:36:19;;;;;;;18.65;12.93;;;10.40;84.30;;;;;;5094131;28;20388;-36
2024/03/05 12:38:45;;;;;;;19.45;12.35;;;10.40;84.40;;;;;;5094239;28;20365;-37
2024/03/05 12:41:18;;;;;;;17.83;12.10;;;10.30;84.40;;;;;;5092851;28;20066;-35
2024/03/05 12:43:54;;;;;;;17.88;12.25;;;10.30;84.60;;;;;;5093934;28;20476;-36